Time;durP1;ratioP1;P1;durP2;ratioP2;P2;SDS_P1;SDS_P2;PMS_P1;PMS_P2;Temp;Humidity;BMP_temperature;BMP_pressure;BME280_temperature;BME280_humidity;BME280_pressure;Samples;Min_cycle;Max_cycle;Signal;HPM_P1;HPM_P2
2023/06/26 00:02:22;;;;;;;3.05;2.30;;;;;;;;;;10499015;28;20039;-58
2023/06/26 00:07:23;;;;;;;2.78;2.08;;;;;;;;;;10493763;28;20078;-60
2023/06/26 00:12:24;;;;;;;9.02;2.05;;;;;;;;;;10494732;28;20484;-59
2023/06/26 00:17:24;;;;;;;2.85;2.40;;;;;;;;;;10493466;28;20475;-59
2023/06/26 00:22:25;;;;;;;2.30;1.83;;;;;;;;;;10507690;28;20380;-60
2023/06/26 00:27:25;;;;;;;3.10;1.95;;;;;;;;;;10499022;28;20341;-59
2023/06/26 00:32:26;;;;;;;4.50;2.53;;;;;;;;;;10492688;28;20408;-58
2023/06/26 00:37:27;;;;;;;4.93;1.90;;;;;;;;;;10493679;28;20461;-61
2023/06/26 00:42:27;;;;;;;4.05;2.03;;;;;;;;;;10494787;28;20491;-59
2023/06/26 00:47:29;;;;;;;2.63;1.90;;;;;;;;;;10491408;28;20036;-61
2023/06/26 00:52:31;;;;;;;1.80;1.70;;;;;;;;;;10491100;28;20027;-58
2023/06/26 00:57:32;;;;;;;2.83;1.95;;;;;;;;;;10490494;28;20068;-58
2023/06/26 01:02:33;;;;;;;5.00;2.00;;;;;;;;;;10492784;28;20025;-60
2023/06/26 01:07:36;;;;;;;5.05;2.10;;;;;;;;;;10490448;28;20032;-59
2023/06/26 01:12:38;;;;;;;1.80;1.70;;;;;;;;;;10489899;28;20027;-58
2023/06/26 01:17:40;;;;;;;3.88;1.98;;;;;;;;;;10491445;28;20073;-59
2023/06/26 01:23:19;;;;;;;1.85;1.75;;;;;;;;;;10489842;28;20032;-58
2023/06/26 01:28:20;;;;;;;1.60;1.50;;;;;;;;;;10490523;28;20075;-58
2023/06/26 01:33:21;;;;;;;2.10;1.90;;;;;;;;;;10477690;28;20435;-62
2023/06/26 01:38:25;;;;;;;1.83;1.65;;;;;;;;;;10489856;28;20047;-62
2023/06/26 01:43:47;;;;;;;3.05;2.00;;;;;;;;;;10490329;28;20032;-57
2023/06/26 01:49:07;;;;;;;2.88;2.15;;;;;;;;;;10479317;28;20028;-60
2023/06/26 01:54:13;;;;;;;2.72;2.00;;;;;;;;;;10491837;28;20071;-60
2023/06/26 01:59:14;;;;;;;2.45;1.80;;;;;;;;;;10498077;28;20024;-57
2023/06/26 02:04:15;;;;;;;2.95;1.80;;;;;;;;;;10498687;28;20744;-57
2023/06/26 02:09:15;;;;;;;1.98;1.70;;;;;;;;;;10499640;28;20073;-58
2023/06/26 02:14:16;;;;;;;1.95;1.75;;;;;;;;;;10499474;28;20031;-59
2023/06/26 02:19:21;;;;;;;2.33;1.80;;;;;;;;;;10499505;28;20094;-57
2023/06/26 02:24:21;;;;;;;2.08;1.85;;;;;;;;;;10492201;28;20380;-57
2023/06/26 02:29:22;;;;;;;3.25;1.67;;;;;;;;;;10501112;28;20029;-58
2023/06/26 02:34:23;;;;;;;3.22;1.90;;;;;;;;;;10497569;28;20109;-55
2023/06/26 02:39:24;;;;;;;1.70;1.45;;;;;;;;;;10496560;28;20045;-57
2023/06/26 02:44:25;;;;;;;2.92;2.00;;;;;;;;;;10497707;28;20024;-57
2023/06/26 02:49:25;;;;;;;2.10;1.75;;;;;;;;;;10496222;28;20071;-57
2023/06/26 02:54:26;;;;;;;2.00;1.75;;;;;;;;;;10497249;28;20495;-58
2023/06/26 02:59:26;;;;;;;1.58;1.48;;;;;;;;;;10497445;28;20350;-62
2023/06/26 03:04:27;;;;;;;1.13;1.13;;;;;;;;;;10497443;28;20475;-58
2023/06/26 03:09:28;;;;;;;1.67;1.52;;;;;;;;;;10495964;28;20472;-57
2023/06/26 03:14:29;;;;;;;1.73;1.63;;;;;;;;;;10496057;28;20033;-57
2023/06/26 03:19:30;;;;;;;2.05;1.70;;;;;;;;;;10495692;28;20691;-58
2023/06/26 03:24:31;;;;;;;1.60;1.50;;;;;;;;;;10497052;28;20243;-56
2023/06/26 03:29:31;;;;;;;2.65;1.55;;;;;;;;;;10496961;28;20131;-56
2023/06/26 03:34:32;;;;;;;1.20;1.20;;;;;;;;;;10494868;28;20049;-56
2023/06/26 03:39:33;;;;;;;1.98;1.85;;;;;;;;;;10495855;28;20044;-56
2023/06/26 03:44:33;;;;;;;3.63;1.90;;;;;;;;;;10494785;28;20032;-56
2023/06/26 03:49:34;;;;;;;1.42;1.33;;;;;;;;;;10494338;28;20476;-58
2023/06/26 03:54:34;;;;;;;1.90;1.75;;;;;;;;;;10494229;28;20549;-58
2023/06/26 03:59:36;;;;;;;2.15;1.75;;;;;;;;;;10494673;28;20384;-58
2023/06/26 04:04:37;;;;;;;2.30;1.90;;;;;;;;;;10494392;28;20149;-59
2023/06/26 04:09:38;;;;;;;1.73;1.60;;;;;;;;;;10493562;28;20059;-58
2023/06/26 04:14:38;;;;;;;2.53;1.75;;;;;;;;;;10494277;28;20020;-59
2023/06/26 04:19:39;;;;;;;1.80;1.70;;;;;;;;;;10492335;28;20369;-59
2023/06/26 04:24:39;;;;;;;1.73;1.63;;;;;;;;;;10496917;28;20426;-59
2023/06/26 04:29:40;;;;;;;1.95;1.65;;;;;;;;;;10492898;28;20025;-59
2023/06/26 04:34:43;;;;;;;1.77;1.50;;;;;;;;;;10492427;28;20052;-60
2023/06/26 04:39:44;;;;;;;1.45;1.35;;;;;;;;;;10491998;28;20036;-58
2023/06/26 04:44:44;;;;;;;2.03;1.63;;;;;;;;;;10494133;28;20020;-60
2023/06/26 04:49:48;;;;;;;13.02;1.73;;;;;;;;;;10492536;28;20040;-58
2023/06/26 04:54:48;;;;;;;2.08;1.88;;;;;;;;;;10491948;28;20025;-59
2023/06/26 04:59:49;;;;;;;1.83;1.63;;;;;;;;;;10492421;28;20052;-58
2023/06/26 05:04:50;;;;;;;1.80;1.50;;;;;;;;;;10491935;28;20024;-57
2023/06/26 05:09:50;;;;;;;1.73;1.63;;;;;;;;;;10492819;28;20035;-61
2023/06/26 05:14:51;;;;;;;2.85;1.70;;;;;;;;;;10491522;28;20021;-62
2023/06/26 05:19:51;;;;;;;1.90;1.60;;;;;;;;;;10491968;28;20365;-61
2023/06/26 05:24:55;;;;;;;1.73;1.63;;;;;;;;;;10496654;28;20392;-61
2023/06/26 05:29:56;;;;;;;1.30;1.20;;;;;;;;;;10489042;28;20519;-61
2023/06/26 05:34:58;;;;;;;3.97;1.60;;;;;;;;;;10489558;28;20524;-61
2023/06/26 05:39:59;;;;;;;3.22;1.58;;;;;;;;;;10487871;28;20036;-59
2023/06/26 05:45:00;;;;;;;1.88;1.58;;;;;;;;;;10489548;28;20024;-62
2023/06/26 05:50:01;;;;;;;1.45;1.35;;;;;;;;;;10489366;28;20063;-63
2023/06/26 05:55:03;;;;;;;1.58;1.38;;;;;;;;;;10480608;28;20115;-62
2023/06/26 06:00:10;;;;;;;1.50;1.40;;;;;;;;;;10489304;28;20033;-62
2023/06/26 06:05:10;;;;;;;5.70;1.85;;;;;;;;;;10488869;28;20432;-60
2023/06/26 06:10:11;;;;;;;6.43;4.60;;;;;;;;;;10486521;28;20024;-61
2023/06/26 06:15:11;;;;;;;14.68;5.25;;;;;;;;;;10484436;28;20085;-64
2023/06/26 06:20:12;;;;;;;15.18;5.13;;;;;;;;;;10468690;28;20029;-65
2023/06/26 06:25:13;;;;;;;11.82;4.57;;;;;;;;;;10494403;28;20516;-62
2023/06/26 06:30:13;;;;;;;16.17;5.13;;;;;;;;;;10489850;28;20032;-64
2023/06/26 06:35:14;;;;;;;12.25;5.13;;;;;;;;;;10490287;28;20045;-64
2023/06/26 06:40:15;;;;;;;9.23;4.65;;;;;;;;;;10491196;28;20468;-64
2023/06/26 06:45:15;;;;;;;7.43;4.82;;;;;;;;;;10494903;28;20016;-64
2023/06/26 06:50:17;;;;;;;19.50;6.22;;;;;;;;;;10497600;28;20111;-65
2023/06/26 06:55:18;;;;;;;10.95;4.57;;;;;;;;;;10497574;28;20040;-63
2023/06/26 07:00:19;;;;;;;10.93;5.32;;;;;;;;;;10497047;28;20028;-63
2023/06/26 07:05:19;;;;;;;8.25;4.97;;;;;;;;;;10496834;28;20151;-59
2023/06/26 07:10:20;;;;;;;11.57;5.85;;;;;;;;;;10497302;28;20033;-63
2023/06/26 07:15:20;;;;;;;9.32;4.93;;;;;;;;;;10495878;28;20618;-63
2023/06/26 07:20:21;;;;;;;9.68;5.03;;;;;;;;;;10495396;28;20085;-64
2023/06/26 07:25:21;;;;;;;16.58;5.78;;;;;;;;;;10501773;28;20465;-63
2023/06/26 07:30:23;;;;;;;8.30;4.95;;;;;;;;;;10495621;28;20035;-64
2023/06/26 07:35:27;;;;;;;9.35;5.35;;;;;;;;;;10495271;28;20071;-64
2023/06/26 07:40:27;;;;;;;11.98;5.55;;;;;;;;;;10493892;28;20059;-62
2023/06/26 07:45:28;;;;;;;11.55;5.38;;;;;;;;;;10500464;28;20025;-64
2023/06/26 07:50:28;;;;;;;14.13;5.30;;;;;;;;;;10484956;28;20048;-64
2023/06/26 07:55:29;;;;;;;8.77;5.07;;;;;;;;;;10481242;28;20037;-64
2023/06/26 08:00:30;;;;;;;15.40;5.15;;;;;;;;;;10493673;28;20028;-64
2023/06/26 08:05:30;;;;;;;8.07;5.55;;;;;;;;;;10494279;28;20036;-59
2023/06/26 08:10:31;;;;;;;9.38;5.45;;;;;;;;;;10495109;28;20523;-64
2023/06/26 08:15:32;;;;;;;12.50;5.28;;;;;;;;;;10479759;28;20400;-63
2023/06/26 08:20:32;;;;;;;10.45;6.30;;;;;;;;;;10494651;28;20384;-62
2023/06/26 08:25:33;;;;;;;9.25;5.38;;;;;;;;;;10493224;28;20023;-63
2023/06/26 08:30:33;;;;;;;7.20;5.05;;;;;;;;;;10481125;28;20349;-63
2023/06/26 08:35:34;;;;;;;9.30;5.57;;;;;;;;;;10492835;28;20064;-62
2023/06/26 08:40:36;;;;;;;8.98;5.45;;;;;;;;;;10478192;28;20029;-64
2023/06/26 08:45:36;;;;;;;9.32;5.63;;;;;;;;;;10486128;28;20116;-65
2023/06/26 08:50:38;;;;;;;12.73;5.60;;;;;;;;;;10470163;28;20086;-65
2023/06/26 08:55:42;;;;;;;10.27;5.60;;;;;;;;;;10473769;28;20398;-64
2023/06/26 09:00:43;;;;;;;12.00;5.70;;;;;;;;;;10491057;28;20107;-64
2023/06/26 09:05:44;;;;;;;7.97;5.10;;;;;;;;;;10491443;28;20108;-64
2023/06/26 09:10:44;;;;;;;9.05;6.32;;;;;;;;;;10480188;28;20046;-60
2023/06/26 09:15:46;;;;;;;10.15;5.65;;;;;;;;;;10490184;28;20972;-63
2023/06/26 09:20:47;;;;;;;8.18;5.47;;;;;;;;;;10479530;28;20052;-63
2023/06/26 09:25:48;;;;;;;9.85;5.88;;;;;;;;;;10478319;28;20031;-61
2023/06/26 09:30:50;;;;;;;9.77;5.78;;;;;;;;;;10466206;28;20039;-59
2023/06/26 09:35:50;;;;;;;9.68;5.75;;;;;;;;;;10479031;28;20024;-58
2023/06/26 09:40:51;;;;;;;10.50;5.40;;;;;;;;;;10490499;28;20036;-64
2023/06/26 09:45:53;;;;;;;8.32;5.70;;;;;;;;;;10490288;28;20533;-64
2023/06/26 09:50:55;;;;;;;8.80;5.93;;;;;;;;;;10494988;28;20032;-64
2023/06/26 09:55:55;;;;;;;10.05;6.05;;;;;;;;;;10489363;28;20066;-64
2023/06/26 10:00:56;;;;;;;9.23;5.75;;;;;;;;;;10490722;28;20017;-64
2023/06/26 10:05:57;;;;;;;6.97;5.80;;;;;;;;;;10477117;28;20024;-58
2023/06/26 10:10:58;;;;;;;7.05;5.95;;;;;;;;;;10490141;28;20392;-65
2023/06/26 10:16:01;;;;;;;7.00;5.38;;;;;;;;;;10487458;28;20062;-65
2023/06/26 10:21:03;;;;;;;9.45;5.72;;;;;;;;;;10490630;28;20385;-64
2023/06/26 10:26:05;;;;;;;7.72;6.25;;;;;;;;;;10493464;28;20103;-63
2023/06/26 10:31:07;;;;;;;9.48;5.90;;;;;;;;;;10489068;28;20055;-64
2023/06/26 10:36:19;;;;;;;7.90;5.88;;;;;;;;;;10484780;28;20048;-64
2023/06/26 10:41:25;;;;;;;11.27;6.60;;;;;;;;;;10495196;28;20035;-65
2023/06/26 10:46:25;;;;;;;7.97;5.72;;;;;;;;;;10495308;28;20035;-64
2023/06/26 10:51:29;;;;;;;6.75;5.90;;;;;;;;;;10495475;28;20036;-65
2023/06/26 10:56:59;;;;;;;13.20;6.18;;;;;;;;;;10495016;28;20088;-64
2023/06/26 11:02:05;;;;;;;10.05;6.07;;;;;;;;;;10493494;28;20051;-64
2023/06/26 11:07:26;;;;;;;8.60;6.15;;;;;;;;;;10493336;28;20024;-65
2023/06/26 11:12:44;;;;;;;8.57;5.82;;;;;;;;;;10488501;28;20487;-64
2023/06/26 11:17:45;;;;;;;8.60;5.88;;;;;;;;;;10496207;28;20028;-63
2023/06/26 11:22:46;;;;;;;8.90;5.47;;;;;;;;;;10492377;28;20025;-64
2023/06/26 11:27:47;;;;;;;7.60;5.63;;;;;;;;;;10487923;28;20108;-67
2023/06/26 11:32:47;;;;;;;9.52;6.28;;;;;;;;;;10493776;28;20123;-65
2023/06/26 11:37:48;;;;;;;8.25;6.18;;;;;;;;;;10482840;28;20387;-63
2023/06/26 11:42:49;;;;;;;11.10;6.13;;;;;;;;;;10493124;28;20187;-64
2023/06/26 11:47:50;;;;;;;6.93;5.68;;;;;;;;;;10470335;28;20051;-63
2023/06/26 11:52:58;;;;;;;7.15;5.43;;;;;;;;;;10498418;28;20031;-65
2023/06/26 11:57:59;;;;;;;8.23;5.88;;;;;;;;;;10484938;28;20111;-64
2023/06/26 12:03:00;;;;;;;9.43;5.57;;;;;;;;;;10490916;28;20025;-61
2023/06/26 12:08:03;;;;;;;12.32;5.47;;;;;;;;;;10492888;28;20020;-64
2023/06/26 12:13:04;;;;;;;8.52;5.07;;;;;;;;;;10493598;28;20430;-65
2023/06/26 12:18:10;;;;;;;6.90;5.15;;;;;;;;;;10494216;28;20036;-64
2023/06/26 12:23:13;;;;;;;8.07;5.13;;;;;;;;;;10493195;28;20055;-64
2023/06/26 12:28:18;;;;;;;7.55;5.10;;;;;;;;;;10493263;28;20066;-64
2023/06/26 12:33:18;;;;;;;8.98;4.82;;;;;;;;;;10474278;28;20061;-63
2023/06/26 12:38:20;;;;;;;4.88;4.38;;;;;;;;;;10467561;28;20032;-64
2023/06/26 12:43:26;;;;;;;5.88;5.05;;;;;;;;;;10474968;28;20052;-64
2023/06/26 12:48:45;;;;;;;6.20;4.85;;;;;;;;;;10467152;28;20039;-57
2023/06/26 12:53:46;;;;;;;6.72;5.00;;;;;;;;;;10458882;28;20020;-57
2023/06/26 12:58:46;;;;;;;5.97;4.80;;;;;;;;;;10490438;28;20787;-59
2023/06/26 13:03:47;;;;;;;5.57;4.25;;;;;;;;;;10468947;28;20031;-60
2023/06/26 13:08:48;;;;;;;9.48;4.53;;;;;;;;;;10489552;28;20036;-61
2023/06/26 13:13:48;;;;;;;4.93;4.22;;;;;;;;;;10474657;28;20397;-64
2023/06/26 13:18:49;;;;;;;4.70;4.10;;;;;;;;;;10483183;28;20032;-59
2023/06/26 13:23:50;;;;;;;5.15;4.65;;;;;;;;;;10489194;28;20234;-62
2023/06/26 13:28:51;;;;;;;6.50;4.03;;;;;;;;;;10472950;28;20056;-60
2023/06/26 13:33:52;;;;;;;6.00;4.10;;;;;;;;;;10484883;28;20260;-61
2023/06/26 13:38:55;;;;;;;5.28;4.32;;;;;;;;;;10488698;28;20476;-58
2023/06/26 13:43:56;;;;;;;6.07;4.28;;;;;;;;;;10489560;28;20119;-61
2023/06/26 13:48:57;;;;;;;5.20;4.15;;;;;;;;;;10489415;28;20126;-64
2023/06/26 13:54:00;;;;;;;5.03;3.80;;;;;;;;;;10500269;28;20020;-64
2023/06/26 13:59:02;;;;;;;6.57;4.43;;;;;;;;;;10499717;28;20037;-63
2023/06/26 14:04:03;;;;;;;5.90;4.20;;;;;;;;;;10499225;28;20495;-64
2023/06/26 14:09:04;;;;;;;4.50;4.10;;;;;;;;;;10486682;28;20025;-59
2023/06/26 14:14:04;;;;;;;5.72;4.00;;;;;;;;;;10497630;28;20033;-59
2023/06/26 14:19:05;;;;;;;4.88;4.03;;;;;;;;;;10485993;28;20073;-62
2023/06/26 14:24:06;;;;;;;5.00;4.15;;;;;;;;;;10486756;28;20495;-60
2023/06/26 14:29:06;;;;;;;5.50;3.72;;;;;;;;;;10484016;28;20060;-63
2023/06/26 14:34:07;;;;;;;5.57;4.25;;;;;;;;;;10471905;28;20068;-65
2023/06/26 14:39:07;;;;;;;4.60;3.95;;;;;;;;;;10484610;28;20032;-60
2023/06/26 14:44:09;;;;;;;4.93;4.15;;;;;;;;;;10484864;28;20021;-63
2023/06/26 14:49:10;;;;;;;4.53;3.42;;;;;;;;;;10496620;28;20154;-58
2023/06/26 14:54:10;;;;;;;4.30;3.80;;;;;;;;;;10495393;28;20372;-64
2023/06/26 14:59:12;;;;;;;5.90;3.70;;;;;;;;;;10490949;28;20020;-63
2023/06/26 15:04:13;;;;;;;4.72;3.90;;;;;;;;;;10495712;28;20107;-61
2023/06/26 15:09:13;;;;;;;4.93;3.97;;;;;;;;;;10496289;28;20032;-62
2023/06/26 15:14:14;;;;;;;4.60;4.05;;;;;;;;;;10465731;28;20445;-62
2023/06/26 15:19:14;;;;;;;3.83;3.47;;;;;;;;;;10463259;28;20036;-61
2023/06/26 15:24:15;;;;;;;4.18;3.78;;;;;;;;;;10494362;28;20021;-64
2023/06/26 15:29:17;;;;;;;3.80;3.38;;;;;;;;;;10494717;28;20031;-64
2023/06/26 15:34:18;;;;;;;3.80;3.10;;;;;;;;;;10493917;28;20292;-65
2023/06/26 15:39:18;;;;;;;3.63;3.33;;;;;;;;;;10493919;28;20187;-64
2023/06/26 15:44:19;;;;;;;5.50;3.75;;;;;;;;;;10482475;28;20452;-64
2023/06/26 15:49:20;;;;;;;4.47;3.53;;;;;;;;;;10492869;28;20468;-64
2023/06/26 15:54:20;;;;;;;6.13;3.80;;;;;;;;;;10499522;28;20036;-64
2023/06/26 15:59:21;;;;;;;4.32;3.92;;;;;;;;;;10494742;28;20033;-64
2023/06/26 16:04:22;;;;;;;7.10;3.90;;;;;;;;;;10483235;28;20020;-63
2023/06/26 16:09:22;;;;;;;5.28;3.83;;;;;;;;;;10495735;28;20529;-62
2023/06/26 16:14:23;;;;;;;4.85;3.55;;;;;;;;;;10476747;28;20029;-65
2023/06/26 16:19:23;;;;;;;6.32;3.78;;;;;;;;;;10469434;28;20029;-63
2023/06/26 16:24:24;;;;;;;4.50;3.33;;;;;;;;;;10485549;28;20093;-64
2023/06/26 16:29:24;;;;;;;4.88;3.80;;;;;;;;;;10467634;28;20017;-65
2023/06/26 16:34:25;;;;;;;3.55;3.25;;;;;;;;;;10480450;28;20070;-62
2023/06/26 16:39:26;;;;;;;4.00;3.53;;;;;;;;;;10480915;28;20149;-57
2023/06/26 16:44:26;;;;;;;3.95;3.63;;;;;;;;;;10488877;28;20086;-60
2023/06/26 16:49:27;;;;;;;9.77;3.80;;;;;;;;;;10490667;28;20035;-62
2023/06/26 16:54:28;;;;;;;4.10;3.70;;;;;;;;;;10483230;28;20040;-63
2023/06/26 16:59:28;;;;;;;4.35;3.55;;;;;;;;;;10491364;28;20029;-64
2023/06/26 17:04:29;;;;;;;8.93;3.70;;;;;;;;;;10491139;28;20026;-58
2023/06/26 17:09:30;;;;;;;3.85;3.50;;;;;;;;;;10490091;28;20052;-62
2023/06/26 17:14:30;;;;;;;4.38;3.60;;;;;;;;;;10484779;28;20274;-59
2023/06/26 17:19:31;;;;;;;5.28;3.80;;;;;;;;;;10490138;28;20468;-62
2023/06/26 17:24:32;;;;;;;3.65;3.35;;;;;;;;;;10489306;28;20107;-62
2023/06/26 17:29:33;;;;;;;4.28;3.88;;;;;;;;;;10483534;28;20040;-64
2023/06/26 17:34:35;;;;;;;6.10;3.40;;;;;;;;;;10492680;28;20064;-61
2023/06/26 17:39:35;;;;;;;8.65;3.47;;;;;;;;;;10487464;28;20028;-62
2023/06/26 17:44:36;;;;;;;4.82;4.13;;;;;;;;;;10489749;28;20494;-63
2023/06/26 17:49:36;;;;;;;6.15;4.35;;;;;;;;;;10492281;28;20400;-63
2023/06/26 17:54:37;;;;;;;5.65;3.78;;;;;;;;;;10491337;28;20384;-63
2023/06/26 17:59:38;;;;;;;9.07;4.65;;;;;;;;;;10488907;28;20033;-62
2023/06/26 18:04:38;;;;;;;7.60;4.20;;;;;;;;;;10473777;28;20040;-62
2023/06/26 18:09:39;;;;;;;4.50;3.83;;;;;;;;;;10478392;28;20076;-63
2023/06/26 18:14:39;;;;;;;6.05;4.70;;;;;;;;;;10482808;28;20032;-62
2023/06/26 18:19:40;;;;;;;7.95;3.97;;;;;;;;;;10488628;28;20044;-61
2023/06/26 18:24:41;;;;;;;5.43;4.13;;;;;;;;;;10488281;28;20024;-62
2023/06/26 18:29:41;;;;;;;10.85;4.60;;;;;;;;;;10489016;28;20016;-62
2023/06/26 18:34:42;;;;;;;11.68;4.60;;;;;;;;;;10487849;28;20179;-63
2023/06/26 18:39:42;;;;;;;4.25;3.78;;;;;;;;;;10490642;28;20025;-63
2023/06/26 18:44:43;;;;;;;7.35;3.97;;;;;;;;;;10494707;28;20024;-62
2023/06/26 18:49:44;;;;;;;9.65;3.85;;;;;;;;;;10462430;28;20118;-61
2023/06/26 18:54:44;;;;;;;5.32;3.78;;;;;;;;;;10459335;28;21431;-61
2023/06/26 18:59:45;;;;;;;6.43;4.20;;;;;;;;;;10478592;28;20059;-62
2023/06/26 19:04:45;;;;;;;6.47;3.63;;;;;;;;;;10491204;28;20400;-62
2023/06/26 19:09:46;;;;;;;22.73;5.47;;;;;;;;;;10494787;28;20097;-63
2023/06/26 19:14:46;;;;;;;15.48;5.03;;;;;;;;;;10485971;28;20033;-61
2023/06/26 19:19:47;;;;;;;14.85;5.55;;;;;;;;;;10475302;28;20040;-62
2023/06/26 19:24:48;;;;;;;9.82;4.78;;;;;;;;;;10487152;28;20024;-61
2023/06/26 19:29:48;;;;;;;7.40;4.40;;;;;;;;;;10474220;28;20630;-63
2023/06/26 19:34:49;;;;;;;8.10;4.35;;;;;;;;;;10471812;28;20070;-63
2023/06/26 19:39:49;;;;;;;16.52;4.20;;;;;;;;;;10447322;28;20412;-63
2023/06/26 19:44:50;;;;;;;10.82;4.28;;;;;;;;;;10494207;28;20434;-63
2023/06/26 19:49:51;;;;;;;10.32;4.75;;;;;;;;;;10495909;28;20073;-63
2023/06/26 19:54:53;;;;;;;6.95;4.53;;;;;;;;;;10482109;28;20469;-63
2023/06/26 19:59:53;;;;;;;7.05;4.53;;;;;;;;;;10493684;28;20064;-63
2023/06/26 20:04:54;;;;;;;8.52;4.85;;;;;;;;;;10494893;28;20016;-63
2023/06/26 20:09:55;;;;;;;7.85;4.85;;;;;;;;;;10480715;28;20032;-63
2023/06/26 20:14:55;;;;;;;9.80;5.20;;;;;;;;;;10472290;28;20029;-63
2023/06/26 20:19:56;;;;;;;9.90;5.70;;;;;;;;;;10489664;28;20484;-62
2023/06/26 20:24:58;;;;;;;11.73;5.45;;;;;;;;;;10492266;28;20395;-63
2023/06/26 20:30:01;;;;;;;10.15;5.30;;;;;;;;;;10497739;28;20020;-64
2023/06/26 20:35:01;;;;;;;7.20;5.10;;;;;;;;;;10479662;28;20538;-61
2023/06/26 20:40:02;;;;;;;8.18;5.07;;;;;;;;;;10481167;28;20020;-61
2023/06/26 20:45:05;;;;;;;7.60;5.22;;;;;;;;;;10481878;28;20372;-62
2023/06/26 20:50:07;;;;;;;7.68;5.68;;;;;;;;;;10499037;28;20445;-62
2023/06/26 20:55:08;;;;;;;9.57;5.95;;;;;;;;;;10481697;28;20031;-63
2023/06/26 21:00:10;;;;;;;8.77;5.82;;;;;;;;;;10492784;28;20036;-61
2023/06/26 21:05:10;;;;;;;11.95;5.43;;;;;;;;;;10492055;28;20033;-63
2023/06/26 21:10:11;;;;;;;10.02;6.07;;;;;;;;;;10492451;28;20029;-63
2023/06/26 21:15:12;;;;;;;12.07;5.97;;;;;;;;;;10492184;28;20074;-63
2023/06/26 21:20:12;;;;;;;7.32;5.82;;;;;;;;;;10491801;28;20028;-61
2023/06/26 21:25:13;;;;;;;8.45;5.50;;;;;;;;;;10468861;28;20407;-63
2023/06/26 21:30:14;;;;;;;9.43;5.53;;;;;;;;;;10460591;28;20025;-62
2023/06/26 21:35:16;;;;;;;9.95;5.78;;;;;;;;;;10460986;28;20190;-63
2023/06/26 21:40:17;;;;;;;7.63;4.90;;;;;;;;;;10489668;28;20361;-62
2023/06/26 21:45:18;;;;;;;7.47;5.28;;;;;;;;;;10482597;28;20020;-62
2023/06/26 21:50:18;;;;;;;15.45;6.57;;;;;;;;;;10491431;28;20579;-62
2023/06/26 21:55:19;;;;;;;16.88;6.00;;;;;;;;;;10484794;28;20054;-62
2023/06/26 22:00:20;;;;;;;8.63;5.72;;;;;;;;;;10461378;28;20091;-62
2023/06/26 22:05:20;;;;;;;9.52;6.22;;;;;;;;;;10468697;28;20029;-60
2023/06/26 22:10:22;;;;;;;12.75;7.28;;;;;;;;;;10488747;28;20051;-62
2023/06/26 22:15:23;;;;;;;9.65;6.97;;;;;;;;;;10494007;28;20530;-61
2023/06/26 22:20:24;;;;;;;10.65;6.40;;;;;;;;;;10496800;28;20064;-61
2023/06/26 22:25:25;;;;;;;10.05;7.07;;;;;;;;;;10495869;28;20101;-60
2023/06/26 22:30:26;;;;;;;17.95;7.57;;;;;;;;;;10493342;28;20104;-61
2023/06/26 22:35:27;;;;;;;16.98;7.03;;;;;;;;;;10475113;28;20052;-61
2023/06/26 22:40:27;;;;;;;13.63;6.60;;;;;;;;;;10495065;28;20377;-65
2023/06/26 22:45:28;;;;;;;10.82;6.47;;;;;;;;;;10494352;28;20107;-65
2023/06/26 22:50:29;;;;;;;12.77;5.90;;;;;;;;;;10499587;28;20020;-64
2023/06/26 22:55:30;;;;;;;7.70;5.68;;;;;;;;;;10497159;28;20541;-64
2023/06/26 23:00:31;;;;;;;13.93;6.80;;;;;;;;;;10496268;28;20078;-63
2023/06/26 23:05:31;;;;;;;16.02;6.22;;;;;;;;;;10486745;28;20435;-63
2023/06/26 23:10:32;;;;;;;10.80;6.65;;;;;;;;;;10494837;28;20312;-64
2023/06/26 23:15:38;;;;;;;8.18;6.03;;;;;;;;;;10485651;28;20032;-61
2023/06/26 23:20:39;;;;;;;8.43;6.15;;;;;;;;;;10494724;28;20048;-62
2023/06/26 23:25:40;;;;;;;14.02;6.55;;;;;;;;;;10494479;28;20538;-63
2023/06/26 23:30:42;;;;;;;9.77;6.30;;;;;;;;;;10487653;28;20021;-56
2023/06/26 23:35:46;;;;;;;11.55;5.95;;;;;;;;;;10485253;28;20538;-58
2023/06/26 23:40:47;;;;;;;7.22;5.55;;;;;;;;;;10484165;28;20031;-57
2023/06/26 23:45:47;;;;;;;11.73;5.85;;;;;;;;;;10486506;28;20031;-59
2023/06/26 23:50:48;;;;;;;11.10;5.78;;;;;;;;;;10494178;28;20032;-59
2023/06/26 23:55:48;;;;;;;6.70;5.65;;;;;;;;;;10487420;28;20040;-57
